Ameghino, Argentina
Current Conditions -  °F | °C
As of 10:00 AM on Monday 22 Dec 2014 (Local Time) from SAOC Reporting Station
Clear Clear  
Wind Chill: 61°   Ceiling: Unl
Heat Index: 61°   Visibility: 6mi
Dew Point: 28°   Wind: 9mph
Humidity: 29%   Direction: 180°S
Pressure: 30.18"   Gusts: NA
Location:  34.83°S, 62.45°W
Report Text: SAOC 221300Z 18008KT CAVOK 16/M02 Q1022
Loading
Personal Weather Stations






























Interactive Weather Map New forecast layout! Learn more

10-Day Weather Forecast

Advertisements
Track Severe Weather on mobile